createdAt,value
2023-05-16T00:00:10.668Z,12.50
2023-05-16T00:02:39.770Z,12.50
2023-05-16T00:05:11.344Z,12.50
2023-05-16T00:07:43.894Z,12.30
2023-05-16T00:10:12.836Z,12.30
2023-05-16T00:12:42.220Z,12.30
2023-05-16T00:15:13.016Z,12.30
2023-05-16T00:17:46.917Z,12.40
2023-05-16T00:20:17.637Z,12.40
2023-05-16T00:22:48.126Z,12.40
2023-05-16T00:25:16.803Z,12.40
2023-05-16T00:27:45.500Z,12.40
2023-05-16T00:30:14.611Z,12.50
2023-05-16T00:32:43.542Z,12.50
2023-05-16T00:35:13.376Z,12.50
2023-05-16T00:37:42.210Z,12.50
2023-05-16T00:40:14.279Z,12.50
2023-05-16T00:42:44.790Z,12.40
2023-05-16T00:45:13.870Z,12.50
2023-05-16T00:47:42.907Z,12.50
2023-05-16T00:50:12.203Z,12.50
2023-05-16T00:52:41.415Z,12.50
2023-05-16T00:55:13.179Z,12.50
2023-05-16T00:57:45.129Z,12.50
2023-05-16T01:00:15.881Z,12.60
2023-05-16T01:02:46.106Z,12.60
2023-05-16T01:05:14.615Z,12.60
2023-05-16T01:07:44.606Z,12.50
2023-05-16T01:10:14.970Z,12.60
2023-05-16T01:12:56.277Z,12.50
2023-05-16T01:15:35.746Z,12.60
2023-05-16T01:18:13.693Z,12.50
2023-05-16T01:20:46.434Z,12.50
2023-05-16T01:23:38.267Z,12.50
2023-05-16T01:26:17.701Z,12.50
2023-05-16T01:28:47.729Z,12.60
2023-05-16T01:31:16.494Z,12.60
2023-05-16T01:33:46.828Z,12.50
2023-05-16T01:36:25.155Z,12.50
2023-05-16T01:39:07.871Z,12.50
2023-05-16T01:41:54.909Z,12.60
2023-05-16T01:44:28.703Z,12.60
2023-05-16T01:47:05.001Z,12.60
2023-05-16T01:49:41.096Z,12.60
2023-05-16T01:52:14.798Z,12.50
2023-05-16T01:54:47.085Z,12.40
2023-05-16T01:57:18.485Z,12.40
2023-05-16T01:59:48.543Z,12.40
2023-05-16T02:02:20.488Z,12.40
2023-05-16T02:04:49.414Z,12.40
2023-05-16T02:07:19.245Z,12.40
2023-05-16T02:09:48.218Z,12.40
2023-05-16T02:12:19.110Z,12.30
2023-05-16T02:14:49.553Z,12.30
2023-05-16T02:17:20.886Z,12.30
2023-05-16T02:19:50.214Z,12.30
2023-05-16T02:22:19.186Z,12.20
2023-05-16T02:24:48.416Z,12.30
2023-05-16T02:27:19.118Z,12.20
2023-05-16T02:29:47.538Z,12.20
2023-05-16T02:32:16.429Z,12.20
2023-05-16T02:34:45.394Z,12.10
2023-05-16T02:37:14.150Z,12.10
2023-05-16T02:39:43.683Z,12.10
2023-05-16T02:42:12.449Z,12.20
2023-05-16T02:44:44.795Z,12.20
2023-05-16T02:47:14.245Z,12.10
2023-05-16T02:49:43.727Z,12.20
2023-05-16T02:52:13.815Z,12.20
2023-05-16T02:54:42.279Z,12.20
2023-05-16T02:57:12.856Z,12.20
2023-05-16T02:59:44.427Z,12.20
2023-05-16T03:02:15.228Z,12.10
2023-05-16T03:04:43.545Z,12.00
2023-05-16T03:07:12.250Z,11.90
2023-05-16T03:09:41.012Z,12.00
2023-05-16T03:12:10.841Z,12.00
2023-05-16T03:14:40.543Z,12.00
2023-05-16T03:17:11.176Z,11.90
2023-05-16T03:19:41.053Z,11.80
2023-05-16T03:22:09.940Z,11.70
2023-05-16T03:24:38.487Z,11.60
2023-05-16T03:27:07.458Z,11.50
2023-05-16T03:29:36.197Z,11.40
2023-05-16T03:32:06.385Z,11.30
2023-05-16T03:34:36.729Z,11.20
2023-05-16T03:37:05.951Z,11.10
2023-05-16T03:39:34.878Z,11.00
2023-05-16T03:42:03.658Z,11.00
2023-05-16T03:44:32.457Z,11.00
2023-05-16T03:47:02.493Z,11.00
2023-05-16T03:49:30.768Z,11.00
2023-05-16T03:52:02.007Z,11.00
2023-05-16T03:54:30.409Z,10.90
2023-05-16T03:56:58.982Z,10.80
2023-05-16T03:59:28.677Z,10.80
2023-05-16T04:01:58.583Z,10.80
2023-05-16T04:04:28.761Z,10.80
2023-05-16T04:06:57.142Z,10.80
2023-05-16T04:09:27.193Z,10.90
2023-05-16T04:11:56.896Z,11.00
2023-05-16T04:14:25.933Z,11.00
2023-05-16T04:16:55.639Z,11.00
2023-05-16T04:19:24.468Z,11.00
2023-05-16T04:21:53.256Z,11.00
2023-05-16T04:24:22.349Z,11.00
2023-05-16T04:26:53.409Z,11.00
2023-05-16T04:29:44.781Z,11.00
2023-05-16T04:32:18.748Z,11.00
2023-05-16T04:34:53.981Z,11.10
2023-05-16T04:37:33.468Z,11.10
2023-05-16T04:40:02.973Z,11.00
2023-05-16T04:42:34.451Z,11.00
2023-05-16T04:45:11.211Z,11.00
2023-05-16T04:47:47.188Z,11.00
2023-05-16T04:50:16.832Z,11.00
2023-05-16T04:52:45.714Z,10.90
2023-05-16T04:55:18.353Z,10.90
2023-05-16T04:57:48.775Z,10.90
2023-05-16T05:00:19.539Z,10.80
2023-05-16T05:02:48.274Z,10.80
2023-05-16T05:05:17.286Z,10.90
2023-05-16T05:07:45.984Z,10.90
2023-05-16T05:10:16.995Z,10.80
2023-05-16T05:12:47.047Z,10.80
2023-05-16T05:15:19.252Z,10.90
2023-05-16T05:17:49.131Z,10.90
2023-05-16T05:20:18.115Z,10.90
2023-05-16T05:22:47.632Z,10.90
2023-05-16T05:25:17.732Z,10.80
2023-05-16T05:27:48.623Z,10.80
2023-05-16T05:30:20.964Z,10.80
2023-05-16T05:32:49.640Z,10.80
2023-05-16T05:35:18.495Z,10.80
2023-05-16T05:37:47.630Z,10.80
2023-05-16T05:40:17.216Z,10.80
2023-05-16T05:42:47.321Z,10.80
2023-05-16T05:45:16.990Z,10.80
2023-05-16T05:47:47.654Z,10.80
2023-05-16T05:50:17.185Z,10.70
2023-05-16T05:52:45.601Z,10.80
2023-05-16T05:55:13.939Z,10.70
2023-05-16T05:57:42.466Z,10.70
2023-05-16T06:00:12.123Z,10.70
2023-05-16T06:02:40.939Z,10.60
2023-05-16T06:05:12.217Z,10.50
2023-05-16T06:07:42.256Z,10.50
2023-05-16T06:10:11.600Z,10.50
2023-05-16T06:12:40.236Z,10.50
2023-05-16T06:15:10.601Z,10.60
2023-05-16T06:17:39.093Z,10.50
2023-05-16T06:20:09.644Z,10.50
2023-05-16T06:22:40.314Z,10.40
2023-05-16T06:25:09.547Z,10.30
2023-05-16T06:27:39.318Z,10.30
2023-05-16T06:30:09.874Z,10.30
2023-05-16T06:32:41.117Z,10.30
2023-05-16T06:35:10.854Z,10.40
2023-05-16T06:37:42.901Z,10.40
2023-05-16T06:40:13.393Z,10.30
2023-05-16T06:42:42.252Z,10.30
2023-05-16T06:45:12.053Z,10.30
2023-05-16T06:47:40.544Z,10.30
2023-05-16T06:50:10.248Z,10.30
2023-05-16T06:52:40.558Z,10.30
2023-05-16T06:55:10.503Z,10.30
2023-05-16T06:57:39.199Z,10.30
2023-05-16T07:00:09.760Z,10.20
2023-05-16T07:02:39.232Z,10.10
2023-05-16T07:05:08.904Z,10.10
2023-05-16T07:07:37.621Z,10.20
2023-05-16T07:10:08.759Z,10.10
2023-05-16T07:12:39.301Z,10.10
2023-05-16T07:15:10.889Z,10.10
2023-05-16T07:17:40.995Z,10.10
2023-05-16T07:20:14.853Z,10.20
2023-05-16T07:22:44.132Z,10.20
2023-05-16T07:25:16.849Z,10.30
2023-05-16T07:27:46.650Z,10.30
2023-05-16T07:30:16.174Z,10.30
2023-05-16T07:32:44.973Z,10.40
2023-05-16T07:35:15.160Z,10.50
2023-05-16T07:37:44.044Z,10.60
2023-05-16T07:40:15.925Z,10.80
2023-05-16T07:42:44.390Z,10.90
2023-05-16T07:45:12.736Z,10.90
2023-05-16T07:47:41.423Z,10.90
2023-05-16T07:50:11.497Z,11.00
2023-05-16T07:52:42.026Z,11.10
2023-05-16T07:55:11.452Z,11.10
2023-05-16T07:57:41.335Z,11.10
2023-05-16T08:00:10.827Z,11.00
2023-05-16T08:02:43.099Z,11.10
2023-05-16T08:05:12.656Z,11.20
2023-05-16T08:07:41.605Z,11.20
2023-05-16T08:10:13.671Z,11.40
2023-05-16T08:12:44.312Z,11.40
2023-05-16T08:15:13.422Z,11.50
2023-05-16T08:17:43.956Z,11.70
2023-05-16T08:20:14.258Z,11.90
2023-05-16T08:22:42.879Z,12.10
2023-05-16T08:25:11.956Z,12.10
2023-05-16T08:27:41.241Z,12.20
2023-05-16T08:30:14.534Z,12.20
2023-05-16T08:32:42.974Z,12.30
2023-05-16T08:35:13.260Z,12.30
2023-05-16T08:37:41.996Z,12.40
2023-05-16T08:40:14.532Z,12.50
2023-05-16T08:42:45.460Z,12.60
2023-05-16T08:45:15.965Z,12.50
2023-05-16T08:47:48.816Z,12.40
2023-05-16T08:50:18.449Z,12.10
2023-05-16T08:52:49.968Z,12.20
2023-05-16T08:55:23.333Z,12.20
2023-05-16T08:57:53.229Z,12.40
2023-05-16T09:00:24.820Z,12.50
2023-05-16T09:02:57.188Z,12.50
2023-05-16T09:05:27.092Z,12.70
2023-05-16T09:07:56.361Z,12.90
2023-05-16T09:10:25.112Z,12.90
2023-05-16T09:12:53.745Z,13.10
2023-05-16T09:15:23.654Z,13.30
2023-05-16T09:17:53.638Z,13.40
2023-05-16T09:20:23.583Z,13.50
2023-05-16T09:22:54.251Z,13.60
2023-05-16T09:28:03.150Z,13.80
2023-05-16T09:30:37.375Z,13.90
2023-05-16T09:33:09.359Z,13.80
2023-05-16T09:38:17.040Z,13.50
2023-05-16T09:40:49.820Z,13.30
2023-05-16T09:43:19.193Z,13.10
2023-05-16T09:45:50.562Z,12.90
2023-05-16T09:48:21.533Z,12.90
2023-05-16T09:50:53.566Z,12.90
2023-05-16T09:53:29.648Z,12.80
2023-05-16T09:56:07.771Z,13.00
2023-05-16T09:58:37.989Z,13.10
2023-05-16T10:01:08.809Z,13.10
2023-05-16T10:03:41.887Z,13.20
2023-05-16T10:06:10.369Z,13.10
2023-05-16T10:08:41.205Z,13.10
2023-05-16T10:11:10.178Z,13.20
2023-05-16T10:13:39.619Z,13.40
2023-05-16T10:16:13.190Z,13.70
2023-05-16T10:18:43.658Z,13.80
2023-05-16T10:21:16.586Z,13.80
2023-05-16T10:23:49.191Z,13.90
2023-05-16T10:26:19.556Z,13.90
2023-05-16T10:28:49.388Z,14.00
2023-05-16T10:31:20.094Z,13.90
2023-05-16T10:33:49.848Z,13.90
2023-05-16T10:36:19.077Z,13.70
2023-05-16T10:38:49.067Z,13.70
2023-05-16T10:41:18.812Z,14.00
2023-05-16T10:43:58.989Z,14.30
2023-05-16T10:46:30.491Z,14.60
2023-05-16T10:49:00.743Z,14.90
2023-05-16T10:51:37.857Z,15.10
2023-05-16T10:54:09.137Z,15.40
2023-05-16T10:56:38.308Z,15.40
2023-05-16T10:59:24.285Z,15.30
2023-05-16T11:01:59.461Z,15.40
2023-05-16T11:04:47.381Z,15.60
2023-05-16T11:07:19.605Z,15.80
2023-05-16T11:10:04.880Z,16.00
2023-05-16T11:12:49.670Z,16.30
2023-05-16T11:15:27.302Z,16.20
2023-05-16T11:18:15.663Z,16.20
2023-05-16T11:20:45.766Z,16.10
2023-05-16T11:23:25.605Z,16.20
2023-05-16T11:26:00.864Z,16.50
2023-05-16T11:28:30.428Z,16.80
2023-05-16T11:31:00.559Z,16.90
2023-05-16T11:33:35.759Z,16.80
2023-05-16T11:36:16.011Z,16.90
2023-05-16T11:38:45.940Z,17.00
2023-05-16T11:41:16.827Z,17.50
2023-05-16T11:43:46.758Z,18.00
2023-05-16T11:46:17.601Z,18.00
2023-05-16T11:48:50.454Z,17.60
2023-05-16T11:51:21.892Z,17.20
2023-05-16T11:53:51.125Z,17.10
2023-05-16T11:56:20.820Z,17.30
2023-05-16T11:58:50.589Z,17.50
2023-05-16T12:01:19.891Z,17.70
2023-05-16T12:03:58.431Z,17.90
2023-05-16T12:06:30.162Z,17.90
2023-05-16T12:08:59.915Z,18.00
2023-05-16T12:11:29.279Z,17.70
2023-05-16T12:13:58.730Z,17.60
2023-05-16T12:16:27.822Z,17.50
2023-05-16T12:18:59.514Z,17.50
2023-05-16T12:21:28.215Z,17.70
2023-05-16T12:23:57.704Z,18.10
2023-05-16T12:26:30.948Z,18.30
2023-05-16T12:29:00.992Z,18.00
2023-05-16T12:31:32.244Z,17.80
2023-05-16T12:34:02.794Z,17.70
2023-05-16T12:36:34.881Z,17.50
2023-05-16T12:39:08.652Z,17.40
2023-05-16T12:41:42.231Z,17.70
2023-05-16T12:44:17.044Z,18.00
2023-05-16T12:46:49.386Z,18.60
2023-05-16T12:49:22.138Z,19.20
2023-05-16T12:51:52.634Z,19.20
2023-05-16T12:54:23.139Z,19.00
2023-05-16T12:56:51.931Z,18.60
2023-05-16T12:59:21.398Z,18.10
2023-05-16T13:01:50.461Z,17.70
2023-05-16T13:04:20.707Z,17.70
2023-05-16T13:06:59.050Z,18.30
2023-05-16T13:09:31.364Z,18.70
2023-05-16T13:12:02.452Z,18.70
2023-05-16T13:14:30.846Z,18.30
2023-05-16T13:17:00.422Z,17.90
2023-05-16T13:19:33.221Z,17.90
2023-05-16T13:22:01.982Z,18.20
2023-05-16T13:24:30.299Z,18.50
2023-05-16T13:26:59.819Z,18.10
2023-05-16T13:29:30.584Z,17.80
2023-05-16T13:32:02.663Z,17.60
2023-05-16T13:34:33.737Z,17.30
2023-05-16T13:37:02.607Z,17.00
2023-05-16T13:39:31.272Z,16.90
2023-05-16T13:42:00.770Z,16.90
2023-05-16T13:44:29.622Z,17.60
2023-05-16T13:46:59.587Z,18.40
2023-05-16T13:49:28.829Z,18.60
2023-05-16T13:51:59.342Z,18.30
2023-05-16T13:54:30.922Z,18.00
2023-05-16T13:57:02.404Z,17.70
2023-05-16T13:59:59.237Z,16.80
2023-05-16T14:02:26.760Z,16.40
2023-05-16T14:04:56.428Z,16.40
2023-05-16T14:07:28.603Z,16.30
2023-05-16T14:09:59.644Z,16.40
2023-05-16T14:12:29.239Z,16.40
2023-05-16T14:14:57.904Z,16.40
2023-05-16T14:17:28.607Z,16.40
2023-05-16T14:19:57.429Z,16.40
2023-05-16T14:22:30.897Z,16.40
2023-05-16T14:25:01.420Z,16.40
2023-05-16T14:27:30.730Z,16.50
2023-05-16T14:29:59.927Z,16.50
2023-05-16T14:32:29.955Z,16.70
2023-05-16T14:34:59.308Z,16.80
2023-05-16T14:37:30.027Z,16.70
2023-05-16T14:40:00.012Z,16.60
2023-05-16T14:42:30.292Z,16.60
2023-05-16T14:44:59.422Z,16.50
2023-05-16T14:47:28.524Z,16.40
2023-05-16T14:49:58.309Z,16.30
2023-05-16T14:52:28.990Z,16.40
2023-05-16T14:54:57.610Z,17.00
2023-05-16T14:57:27.097Z,17.90
2023-05-16T14:59:55.622Z,19.00
2023-05-16T15:02:24.685Z,19.40
2023-05-16T15:04:54.733Z,19.70
2023-05-16T15:07:23.734Z,20.20
2023-05-16T15:09:54.343Z,20.20
2023-05-16T15:12:23.337Z,19.80
2023-05-16T15:14:51.956Z,19.60
2023-05-16T15:17:23.306Z,19.40
2023-05-16T15:19:54.238Z,19.10
2023-05-16T15:22:22.597Z,19.00
2023-05-16T15:24:51.464Z,19.20
2023-05-16T15:27:22.962Z,19.20
2023-05-16T15:29:52.026Z,19.30
2023-05-16T15:32:21.793Z,19.20
2023-05-16T15:34:50.769Z,18.80
2023-05-16T15:37:21.633Z,18.20
2023-05-16T15:39:51.197Z,17.90
2023-05-16T15:42:22.008Z,17.60
2023-05-16T15:44:50.599Z,17.40
2023-05-16T15:47:19.284Z,17.20
2023-05-16T15:49:48.796Z,17.10
2023-05-16T15:52:17.614Z,17.30
2023-05-16T15:54:47.189Z,17.50
2023-05-16T15:57:16.949Z,17.70
2023-05-16T15:59:51.529Z,17.70
2023-05-16T16:02:20.155Z,17.60
2023-05-16T16:04:53.394Z,17.50
2023-05-16T16:07:21.954Z,17.40
2023-05-16T16:09:52.285Z,17.30
2023-05-16T16:12:23.758Z,17.10
2023-05-16T16:14:55.108Z,17.00
2023-05-16T16:17:23.755Z,17.10
2023-05-16T16:19:52.306Z,17.10
2023-05-16T16:22:22.431Z,17.00
2023-05-16T16:24:51.660Z,17.00
2023-05-16T16:27:21.286Z,17.10
2023-05-16T16:29:51.249Z,17.00
2023-05-16T16:32:21.987Z,16.90
2023-05-16T16:34:51.774Z,16.80
2023-05-16T16:37:21.416Z,16.70
2023-05-16T16:39:50.375Z,16.50
2023-05-16T16:42:21.720Z,16.50
2023-05-16T16:44:51.558Z,16.50
2023-05-16T16:47:23.546Z,16.60
2023-05-16T16:49:53.518Z,16.50
2023-05-16T16:52:21.908Z,16.50
2023-05-16T16:54:50.070Z,16.50
2023-05-16T16:57:19.945Z,16.60
2023-05-16T16:59:51.025Z,16.60
2023-05-16T17:02:19.922Z,16.60
2023-05-16T17:04:51.470Z,16.40
2023-05-16T17:07:19.977Z,16.30
2023-05-16T17:09:51.532Z,16.10
2023-05-16T17:12:23.023Z,15.80
2023-05-16T17:14:53.805Z,15.80
2023-05-16T17:17:24.026Z,15.60
2023-05-16T17:19:54.149Z,15.60
2023-05-16T17:22:22.588Z,15.50
2023-05-16T17:24:51.365Z,15.50
2023-05-16T17:27:20.462Z,15.50
2023-05-16T17:29:51.176Z,15.40
2023-05-16T17:32:21.617Z,15.50
2023-05-16T17:34:50.264Z,15.50
2023-05-16T17:37:21.766Z,15.60
2023-05-16T17:39:53.684Z,15.60
2023-05-16T17:42:24.245Z,15.60
2023-05-16T17:44:53.953Z,15.60
2023-05-16T17:47:23.163Z,15.70
2023-05-16T17:49:53.129Z,15.70
2023-05-16T17:52:24.624Z,15.80
2023-05-16T17:54:53.114Z,15.70
2023-05-16T17:57:22.959Z,15.80
2023-05-16T17:59:51.657Z,15.70
2023-05-16T18:02:22.084Z,15.50
2023-05-16T18:04:52.283Z,15.40
2023-05-16T18:07:22.226Z,15.30
2023-05-16T18:09:51.741Z,15.20
2023-05-16T18:12:20.103Z,15.10
2023-05-16T18:14:50.445Z,15.10
2023-05-16T18:17:19.893Z,15.00
2023-05-16T18:19:50.505Z,15.00
2023-05-16T18:22:19.910Z,14.80
2023-05-16T18:24:51.706Z,14.70
2023-05-16T18:27:20.300Z,14.70
2023-05-16T18:29:48.990Z,14.60
2023-05-16T18:32:17.197Z,14.50
2023-05-16T18:34:45.754Z,14.50
2023-05-16T18:37:13.995Z,14.40
2023-05-16T18:39:43.761Z,14.30
2023-05-16T18:42:13.676Z,14.20
2023-05-16T18:44:43.915Z,14.20
2023-05-16T18:47:12.794Z,14.20
2023-05-16T18:49:41.653Z,14.10
2023-05-16T18:52:11.077Z,13.90
2023-05-16T18:54:40.678Z,13.90
2023-05-16T18:57:11.428Z,13.90
2023-05-16T18:59:42.117Z,13.80
2023-05-16T19:02:10.706Z,13.70
2023-05-16T19:04:40.754Z,13.60
2023-05-16T19:07:10.963Z,13.60
2023-05-16T19:09:46.422Z,13.40
2023-05-16T19:12:17.141Z,13.40
2023-05-16T19:14:49.409Z,13.40
2023-05-16T19:17:19.257Z,13.30
2023-05-16T19:19:48.911Z,13.20
2023-05-16T19:22:20.225Z,13.20
2023-05-16T19:24:49.879Z,13.20
2023-05-16T19:27:20.234Z,13.10
2023-05-16T19:29:50.740Z,13.00
2023-05-16T19:32:19.788Z,13.00
2023-05-16T19:34:48.282Z,12.90
2023-05-16T19:37:17.974Z,12.80
2023-05-16T19:39:46.874Z,12.70
2023-05-16T19:42:15.625Z,12.70
2023-05-16T19:44:44.790Z,12.50
2023-05-16T19:47:15.922Z,12.20
2023-05-16T19:49:44.797Z,11.90
2023-05-16T19:52:14.949Z,11.60
2023-05-16T19:54:43.942Z,11.40
2023-05-16T19:57:13.894Z,11.20
2023-05-16T19:59:44.649Z,11.10
2023-05-16T20:02:16.405Z,11.10
2023-05-16T20:04:46.417Z,10.90
2023-05-16T20:07:15.830Z,10.90
2023-05-16T20:09:44.607Z,10.70
2023-05-16T20:12:12.974Z,10.90
2023-05-16T20:14:42.403Z,11.10
2023-05-16T20:17:13.001Z,11.20
2023-05-16T20:19:44.090Z,11.30
2023-05-16T20:22:13.155Z,11.40
2023-05-16T20:24:41.957Z,11.50
2023-05-16T20:27:10.835Z,11.60
2023-05-16T20:29:43.975Z,11.60
2023-05-16T20:32:12.716Z,11.60
2023-05-16T20:34:42.602Z,11.60
2023-05-16T20:37:13.752Z,11.60
2023-05-16T20:39:43.584Z,11.50
2023-05-16T20:42:12.900Z,11.40
2023-05-16T20:44:43.801Z,11.20
2023-05-16T20:47:12.766Z,11.00
2023-05-16T20:49:44.780Z,10.80
2023-05-16T20:52:13.463Z,10.70
2023-05-16T20:54:42.418Z,10.60
2023-05-16T20:57:13.890Z,10.50
2023-05-16T20:59:43.808Z,10.30
2023-05-16T21:02:13.900Z,10.20
2023-05-16T21:04:44.553Z,10.10
2023-05-16T21:07:14.514Z,10.00
2023-05-16T21:09:44.200Z,9.80
2023-05-16T21:12:15.063Z,9.70
2023-05-16T21:14:44.148Z,9.60
2023-05-16T21:17:13.807Z,9.60
2023-05-16T21:19:43.807Z,9.50
2023-05-16T21:22:12.587Z,9.50
2023-05-16T21:24:44.302Z,9.60
2023-05-16T21:27:13.478Z,9.60
2023-05-16T21:29:41.953Z,9.60
2023-05-16T21:32:15.487Z,9.70
2023-05-16T21:34:46.854Z,9.70
2023-05-16T21:37:15.156Z,9.70
2023-05-16T21:39:44.120Z,9.80
2023-05-16T21:42:12.447Z,9.80
2023-05-16T21:44:42.357Z,9.80
2023-05-16T21:47:12.641Z,9.80
2023-05-16T21:49:41.322Z,9.90
2023-05-16T21:52:11.605Z,9.90
2023-05-16T21:54:40.637Z,9.90
2023-05-16T21:57:09.977Z,9.90
2023-05-16T21:59:38.614Z,10.00
2023-05-16T22:02:08.244Z,10.00
2023-05-16T22:04:37.631Z,10.00
2023-05-16T22:07:09.564Z,10.00
2023-05-16T22:09:41.638Z,9.90
2023-05-16T22:12:11.294Z,9.80
2023-05-16T22:14:40.449Z,9.80
2023-05-16T22:17:09.747Z,9.80
2023-05-16T22:19:38.571Z,9.70
2023-05-16T22:22:08.830Z,9.70
2023-05-16T22:24:37.553Z,9.60
2023-05-16T22:27:08.001Z,9.60
2023-05-16T22:29:39.267Z,9.70
2023-05-16T22:32:10.661Z,9.70
2023-05-16T22:34:40.518Z,9.60
2023-05-16T22:37:09.492Z,9.70
2023-05-16T22:39:39.241Z,9.60
2023-05-16T22:42:10.010Z,9.60
2023-05-16T22:44:38.752Z,9.60
2023-05-16T22:47:08.575Z,9.60
2023-05-16T22:49:40.255Z,9.60
2023-05-16T22:52:11.051Z,9.50
2023-05-16T22:54:41.895Z,9.50
2023-05-16T22:57:13.780Z,9.50
2023-05-16T22:59:44.875Z,9.50
2023-05-16T23:02:13.729Z,9.50
2023-05-16T23:04:43.739Z,9.50
2023-05-16T23:07:12.958Z,9.50
2023-05-16T23:09:41.930Z,9.50
2023-05-16T23:12:12.972Z,9.50
2023-05-16T23:14:41.771Z,9.40
2023-05-16T23:17:10.183Z,9.40
2023-05-16T23:19:38.959Z,9.40
2023-05-16T23:22:07.777Z,9.50
2023-05-16T23:24:37.894Z,9.50
2023-05-16T23:27:07.406Z,9.50
2023-05-16T23:29:37.969Z,9.50
2023-05-16T23:32:10.270Z,9.40
2023-05-16T23:34:40.676Z,9.30
2023-05-16T23:37:10.324Z,9.30
2023-05-16T23:42:47.985Z,9.20
2023-05-16T23:45:17.551Z,9.20
2023-05-16T23:47:45.955Z,9.20
2023-05-16T23:50:15.517Z,9.20
2023-05-16T23:52:43.748Z,9.10
2023-05-16T23:55:12.353Z,9.10
2023-05-16T23:57:41.461Z,9.00
